sensor_id;sensor_type;location;lat;lon;timestamp;P1;durP1;ratioP1;P2;durP2;ratioP2
8540;SDS011;4308;51.294;6.590;2024-02-15T00:02:24;16.83;;;8.07;;
8540;SDS011;4308;51.294;6.590;2024-02-15T00:04:51;10.93;;;7.13;;
8540;SDS011;4308;51.294;6.590;2024-02-15T00:07:19;14.40;;;7.33;;
8540;SDS011;4308;51.294;6.590;2024-02-15T00:09:46;16.40;;;8.40;;
8540;SDS011;4308;51.294;6.590;2024-02-15T00:12:13;15.07;;;8.10;;
8540;SDS011;4308;51.294;6.590;2024-02-15T00:14:41;11.97;;;8.13;;
8540;SDS011;4308;51.294;6.590;2024-02-15T00:17:08;13.37;;;7.70;;
8540;SDS011;4308;51.294;6.590;2024-02-15T00:19:35;15.43;;;8.17;;
8540;SDS011;4308;51.294;6.590;2024-02-15T00:22:03;13.20;;;8.33;;
8540;SDS011;4308;51.294;6.590;2024-02-15T00:24:30;12.93;;;8.10;;
8540;SDS011;4308;51.294;6.590;2024-02-15T00:26:58;13.90;;;8.27;;
8540;SDS011;4308;51.294;6.590;2024-02-15T00:29:25;14.43;;;8.37;;
8540;SDS011;4308;51.294;6.590;2024-02-15T00:31:52;13.33;;;8.80;;
8540;SDS011;4308;51.294;6.590;2024-02-15T00:34:20;15.10;;;9.00;;
8540;SDS011;4308;51.294;6.590;2024-02-15T00:36:48;15.23;;;8.43;;
8540;SDS011;4308;51.294;6.590;2024-02-15T00:39:15;16.37;;;8.87;;
8540;SDS011;4308;51.294;6.590;2024-02-15T00:41:43;16.87;;;8.63;;
8540;SDS011;4308;51.294;6.590;2024-02-15T00:44:10;15.30;;;8.23;;
8540;SDS011;4308;51.294;6.590;2024-02-15T00:46:38;16.17;;;8.63;;
8540;SDS011;4308;51.294;6.590;2024-02-15T00:49:05;15.87;;;8.13;;
8540;SDS011;4308;51.294;6.590;2024-02-15T00:51:34;10.67;;;7.40;;
8540;SDS011;4308;51.294;6.590;2024-02-15T00:54:02;14.07;;;8.47;;
8540;SDS011;4308;51.294;6.590;2024-02-15T00:56:31;11.83;;;7.50;;
8540;SDS011;4308;51.294;6.590;2024-02-15T00:59:01;14.10;;;7.73;;
8540;SDS011;4308;51.294;6.590;2024-02-15T01:01:28;17.43;;;7.83;;
8540;SDS011;4308;51.294;6.590;2024-02-15T01:03:56;11.03;;;7.63;;
8540;SDS011;4308;51.294;6.590;2024-02-15T01:06:23;13.47;;;7.37;;
8540;SDS011;4308;51.294;6.590;2024-02-15T01:08:51;11.87;;;6.80;;
8540;SDS011;4308;51.294;6.590;2024-02-15T01:11:18;13.83;;;7.30;;
8540;SDS011;4308;51.294;6.590;2024-02-15T01:13:45;14.37;;;6.97;;
8540;SDS011;4308;51.294;6.590;2024-02-15T01:16:13;15.07;;;6.90;;
8540;SDS011;4308;51.294;6.590;2024-02-15T01:18:40;16.10;;;7.50;;
8540;SDS011;4308;51.294;6.590;2024-02-15T01:21:08;13.73;;;7.50;;
8540;SDS011;4308;51.294;6.590;2024-02-15T01:23:35;14.30;;;7.60;;
8540;SDS011;4308;51.294;6.590;2024-02-15T01:26:02;15.73;;;7.23;;
8540;SDS011;4308;51.294;6.590;2024-02-15T01:28:30;16.93;;;7.43;;
8540;SDS011;4308;51.294;6.590;2024-02-15T01:30:57;18.57;;;6.90;;
8540;SDS011;4308;51.294;6.590;2024-02-15T01:33:25;15.83;;;6.90;;
8540;SDS011;4308;51.294;6.590;2024-02-15T01:35:52;14.77;;;6.47;;
8540;SDS011;4308;51.294;6.590;2024-02-15T01:38:19;13.47;;;6.63;;
8540;SDS011;4308;51.294;6.590;2024-02-15T01:40:47;18.93;;;7.03;;
8540;SDS011;4308;51.294;6.590;2024-02-15T01:43:14;13.77;;;6.23;;
8540;SDS011;4308;51.294;6.590;2024-02-15T01:45:42;14.27;;;6.03;;
8540;SDS011;4308;51.294;6.590;2024-02-15T01:48:09;12.07;;;6.30;;
8540;SDS011;4308;51.294;6.590;2024-02-15T01:50:38;11.73;;;5.30;;
8540;SDS011;4308;51.294;6.590;2024-02-15T01:53:07;9.23;;;5.53;;
8540;SDS011;4308;51.294;6.590;2024-02-15T01:55:35;9.30;;;5.77;;
8540;SDS011;4308;51.294;6.590;2024-02-15T01:58:04;15.73;;;6.03;;
8540;SDS011;4308;51.294;6.590;2024-02-15T02:00:32;15.83;;;6.07;;
8540;SDS011;4308;51.294;6.590;2024-02-15T02:02:59;10.90;;;6.00;;
8540;SDS011;4308;51.294;6.590;2024-02-15T02:05:29;13.43;;;5.23;;
8540;SDS011;4308;51.294;6.590;2024-02-15T02:07:57;10.43;;;5.33;;
8540;SDS011;4308;51.294;6.590;2024-02-15T02:10:25;12.47;;;5.70;;
8540;SDS011;4308;51.294;6.590;2024-02-15T02:12:52;10.73;;;5.43;;
8540;SDS011;4308;51.294;6.590;2024-02-15T02:15:20;11.67;;;5.53;;
8540;SDS011;4308;51.294;6.590;2024-02-15T02:17:50;11.37;;;5.40;;
8540;SDS011;4308;51.294;6.590;2024-02-15T02:20:17;10.70;;;5.43;;
8540;SDS011;4308;51.294;6.590;2024-02-15T02:22:46;10.00;;;5.67;;
8540;SDS011;4308;51.294;6.590;2024-02-15T02:25:17;11.83;;;5.50;;
8540;SDS011;4308;51.294;6.590;2024-02-15T02:27:45;9.57;;;5.20;;
8540;SDS011;4308;51.294;6.590;2024-02-15T02:30:15;15.00;;;5.73;;
8540;SDS011;4308;51.294;6.590;2024-02-15T02:32:43;12.60;;;5.50;;
8540;SDS011;4308;51.294;6.590;2024-02-15T02:35:11;11.07;;;5.43;;
8540;SDS011;4308;51.294;6.590;2024-02-15T02:37:39;11.60;;;5.80;;
8540;SDS011;4308;51.294;6.590;2024-02-15T02:40:06;9.87;;;5.83;;
8540;SDS011;4308;51.294;6.590;2024-02-15T02:42:54;11.77;;;5.30;;
8540;SDS011;4308;51.294;6.590;2024-02-15T02:45:22;10.33;;;5.77;;
8540;SDS011;4308;51.294;6.590;2024-02-15T02:47:51;11.50;;;5.50;;
8540;SDS011;4308;51.294;6.590;2024-02-15T02:50:20;14.90;;;5.77;;
8540;SDS011;4308;51.294;6.590;2024-02-15T02:52:48;13.73;;;5.67;;
8540;SDS011;4308;51.294;6.590;2024-02-15T02:55:16;9.27;;;5.90;;
8540;SDS011;4308;51.294;6.590;2024-02-15T02:57:43;10.90;;;5.53;;
8540;SDS011;4308;51.294;6.590;2024-02-15T03:00:12;11.70;;;5.03;;
8540;SDS011;4308;51.294;6.590;2024-02-15T03:02:40;14.13;;;5.30;;
8540;SDS011;4308;51.294;6.590;2024-02-15T03:05:08;14.00;;;5.93;;
8540;SDS011;4308;51.294;6.590;2024-02-15T03:07:37;10.50;;;5.20;;
8540;SDS011;4308;51.294;6.590;2024-02-15T03:10:05;10.20;;;5.50;;
8540;SDS011;4308;51.294;6.590;2024-02-15T03:12:32;12.07;;;5.37;;
8540;SDS011;4308;51.294;6.590;2024-02-15T03:14:59;12.63;;;5.53;;
8540;SDS011;4308;51.294;6.590;2024-02-15T03:17:27;10.70;;;4.80;;
8540;SDS011;4308;51.294;6.590;2024-02-15T03:19:54;12.07;;;5.20;;
8540;SDS011;4308;51.294;6.590;2024-02-15T03:22:22;12.40;;;5.53;;
8540;SDS011;4308;51.294;6.590;2024-02-15T03:24:49;11.13;;;5.13;;
8540;SDS011;4308;51.294;6.590;2024-02-15T03:27:16;12.53;;;5.50;;
8540;SDS011;4308;51.294;6.590;2024-02-15T03:29:43;12.30;;;5.23;;
8540;SDS011;4308;51.294;6.590;2024-02-15T03:32:11;10.87;;;4.90;;
8540;SDS011;4308;51.294;6.590;2024-02-15T03:34:38;12.83;;;5.93;;
8540;SDS011;4308;51.294;6.590;2024-02-15T03:37:05;12.30;;;5.13;;
8540;SDS011;4308;51.294;6.590;2024-02-15T03:39:33;11.67;;;5.63;;
8540;SDS011;4308;51.294;6.590;2024-02-15T03:42:00;11.47;;;5.57;;
8540;SDS011;4308;51.294;6.590;2024-02-15T03:44:27;9.60;;;4.97;;
8540;SDS011;4308;51.294;6.590;2024-02-15T03:46:55;13.43;;;4.90;;
8540;SDS011;4308;51.294;6.590;2024-02-15T03:49:25;9.83;;;4.90;;
8540;SDS011;4308;51.294;6.590;2024-02-15T03:51:52;12.47;;;5.23;;
8540;SDS011;4308;51.294;6.590;2024-02-15T03:54:20;11.17;;;5.00;;
8540;SDS011;4308;51.294;6.590;2024-02-15T03:56:48;13.10;;;5.13;;
8540;SDS011;4308;51.294;6.590;2024-02-15T03:59:16;11.40;;;4.40;;
8540;SDS011;4308;51.294;6.590;2024-02-15T04:01:43;12.47;;;4.63;;
8540;SDS011;4308;51.294;6.590;2024-02-15T04:04:11;12.63;;;4.90;;
8540;SDS011;4308;51.294;6.590;2024-02-15T04:06:39;13.37;;;5.37;;
8540;SDS011;4308;51.294;6.590;2024-02-15T04:09:06;11.80;;;5.30;;
8540;SDS011;4308;51.294;6.590;2024-02-15T04:11:34;10.70;;;4.80;;
8540;SDS011;4308;51.294;6.590;2024-02-15T04:14:02;12.93;;;4.90;;
8540;SDS011;4308;51.294;6.590;2024-02-15T04:16:29;12.20;;;5.00;;
8540;SDS011;4308;51.294;6.590;2024-02-15T04:18:56;10.30;;;5.20;;
8540;SDS011;4308;51.294;6.590;2024-02-15T04:21:24;10.90;;;4.53;;
8540;SDS011;4308;51.294;6.590;2024-02-15T04:23:51;10.37;;;5.07;;
8540;SDS011;4308;51.294;6.590;2024-02-15T04:26:19;10.40;;;5.17;;
8540;SDS011;4308;51.294;6.590;2024-02-15T04:28:46;12.43;;;5.77;;
8540;SDS011;4308;51.294;6.590;2024-02-15T04:31:14;10.07;;;6.00;;
8540;SDS011;4308;51.294;6.590;2024-02-15T04:33:41;14.67;;;5.63;;
8540;SDS011;4308;51.294;6.590;2024-02-15T04:36:08;13.80;;;5.97;;
8540;SDS011;4308;51.294;6.590;2024-02-15T04:38:36;11.70;;;5.40;;
8540;SDS011;4308;51.294;6.590;2024-02-15T04:41:05;12.20;;;4.80;;
8540;SDS011;4308;51.294;6.590;2024-02-15T04:43:33;12.33;;;4.70;;
8540;SDS011;4308;51.294;6.590;2024-02-15T04:46:00;10.90;;;4.30;;
8540;SDS011;4308;51.294;6.590;2024-02-15T04:48:27;12.73;;;4.47;;
8540;SDS011;4308;51.294;6.590;2024-02-15T04:50:55;6.37;;;3.67;;
8540;SDS011;4308;51.294;6.590;2024-02-15T04:53:24;8.67;;;3.93;;
8540;SDS011;4308;51.294;6.590;2024-02-15T04:55:52;7.07;;;3.23;;
8540;SDS011;4308;51.294;6.590;2024-02-15T04:58:19;7.20;;;3.23;;
8540;SDS011;4308;51.294;6.590;2024-02-15T05:00:46;6.60;;;3.37;;
8540;SDS011;4308;51.294;6.590;2024-02-15T05:03:13;5.87;;;3.50;;
8540;SDS011;4308;51.294;6.590;2024-02-15T05:05:41;8.23;;;3.53;;
8540;SDS011;4308;51.294;6.590;2024-02-15T05:08:08;3.57;;;2.90;;
8540;SDS011;4308;51.294;6.590;2024-02-15T05:10:36;7.10;;;3.10;;
8540;SDS011;4308;51.294;6.590;2024-02-15T05:13:03;7.47;;;3.73;;
8540;SDS011;4308;51.294;6.590;2024-02-15T05:15:30;7.43;;;3.50;;
8540;SDS011;4308;51.294;6.590;2024-02-15T05:17:58;4.17;;;2.80;;
8540;SDS011;4308;51.294;6.590;2024-02-15T05:20:25;6.77;;;3.27;;
8540;SDS011;4308;51.294;6.590;2024-02-15T05:22:53;5.60;;;3.03;;
8540;SDS011;4308;51.294;6.590;2024-02-15T05:25:20;2.77;;;2.57;;
8540;SDS011;4308;51.294;6.590;2024-02-15T05:27:47;6.70;;;2.80;;
8540;SDS011;4308;51.294;6.590;2024-02-15T05:30:15;6.37;;;3.13;;
8540;SDS011;4308;51.294;6.590;2024-02-15T05:32:42;4.80;;;3.30;;
8540;SDS011;4308;51.294;6.590;2024-02-15T05:35:10;5.83;;;2.97;;
8540;SDS011;4308;51.294;6.590;2024-02-15T05:37:38;5.97;;;3.20;;
8540;SDS011;4308;51.294;6.590;2024-02-15T05:40:05;6.37;;;2.97;;
8540;SDS011;4308;51.294;6.590;2024-02-15T05:42:33;6.87;;;3.03;;
8540;SDS011;4308;51.294;6.590;2024-02-15T05:45:47;5.93;;;3.40;;
8540;SDS011;4308;51.294;6.590;2024-02-15T05:47:51;5.17;;;3.33;;
8540;SDS011;4308;51.294;6.590;2024-02-15T05:50:19;7.93;;;2.77;;
8540;SDS011;4308;51.294;6.590;2024-02-15T05:52:47;4.17;;;3.00;;
8540;SDS011;4308;51.294;6.590;2024-02-15T05:55:14;5.30;;;3.07;;
8540;SDS011;4308;51.294;6.590;2024-02-15T05:57:45;8.73;;;3.47;;
8540;SDS011;4308;51.294;6.590;2024-02-15T06:00:13;8.73;;;3.30;;
8540;SDS011;4308;51.294;6.590;2024-02-15T06:02:49;8.40;;;3.30;;
8540;SDS011;4308;51.294;6.590;2024-02-15T06:05:18;10.37;;;3.20;;
8540;SDS011;4308;51.294;6.590;2024-02-15T06:07:45;7.20;;;3.03;;
8540;SDS011;4308;51.294;6.590;2024-02-15T06:10:14;5.73;;;3.57;;
8540;SDS011;4308;51.294;6.590;2024-02-15T06:12:43;6.20;;;2.93;;
8540;SDS011;4308;51.294;6.590;2024-02-15T06:15:11;5.83;;;2.90;;
8540;SDS011;4308;51.294;6.590;2024-02-15T06:17:38;4.33;;;2.77;;
8540;SDS011;4308;51.294;6.590;2024-02-15T06:20:06;7.77;;;3.37;;
8540;SDS011;4308;51.294;6.590;2024-02-15T06:22:34;7.53;;;3.03;;
8540;SDS011;4308;51.294;6.590;2024-02-15T06:25:01;6.30;;;2.93;;
8540;SDS011;4308;51.294;6.590;2024-02-15T06:27:28;6.13;;;3.80;;
8540;SDS011;4308;51.294;6.590;2024-02-15T06:29:56;9.53;;;4.57;;
8540;SDS011;4308;51.294;6.590;2024-02-15T06:32:23;7.90;;;4.73;;
8540;SDS011;4308;51.294;6.590;2024-02-15T06:34:50;9.80;;;4.03;;
8540;SDS011;4308;51.294;6.590;2024-02-15T06:37:37;6.87;;;3.47;;
8540;SDS011;4308;51.294;6.590;2024-02-15T06:40:05;6.80;;;3.30;;
8540;SDS011;4308;51.294;6.590;2024-02-15T06:42:33;6.17;;;3.30;;
8540;SDS011;4308;51.294;6.590;2024-02-15T06:45:00;6.47;;;3.70;;
8540;SDS011;4308;51.294;6.590;2024-02-15T06:47:27;12.43;;;3.90;;
8540;SDS011;4308;51.294;6.590;2024-02-15T06:49:55;8.27;;;3.60;;
8540;SDS011;4308;51.294;6.590;2024-02-15T06:52:22;7.93;;;3.83;;
8540;SDS011;4308;51.294;6.590;2024-02-15T06:54:49;9.77;;;4.00;;
8540;SDS011;4308;51.294;6.590;2024-02-15T06:57:17;10.47;;;4.20;;
8540;SDS011;4308;51.294;6.590;2024-02-15T06:59:46;10.13;;;4.00;;
8540;SDS011;4308;51.294;6.590;2024-02-15T07:02:14;9.80;;;3.90;;
8540;SDS011;4308;51.294;6.590;2024-02-15T07:04:44;11.90;;;4.50;;
8540;SDS011;4308;51.294;6.590;2024-02-15T07:07:11;7.67;;;4.00;;
8540;SDS011;4308;51.294;6.590;2024-02-15T07:09:39;9.30;;;4.40;;
8540;SDS011;4308;51.294;6.590;2024-02-15T07:12:06;7.43;;;3.90;;
8540;SDS011;4308;51.294;6.590;2024-02-15T07:14:33;9.87;;;4.23;;
8540;SDS011;4308;51.294;6.590;2024-02-15T07:17:01;11.57;;;4.30;;
8540;SDS011;4308;51.294;6.590;2024-02-15T07:19:29;10.73;;;4.67;;
8540;SDS011;4308;51.294;6.590;2024-02-15T07:21:56;10.87;;;4.57;;
8540;SDS011;4308;51.294;6.590;2024-02-15T07:24:24;8.97;;;4.57;;
8540;SDS011;4308;51.294;6.590;2024-02-15T07:26:51;10.90;;;4.90;;
8540;SDS011;4308;51.294;6.590;2024-02-15T07:29:18;13.23;;;5.53;;
8540;SDS011;4308;51.294;6.590;2024-02-15T07:31:46;11.17;;;5.13;;
8540;SDS011;4308;51.294;6.590;2024-02-15T07:34:13;9.40;;;4.40;;
8540;SDS011;4308;51.294;6.590;2024-02-15T07:36:42;10.07;;;4.60;;
8540;SDS011;4308;51.294;6.590;2024-02-15T07:39:09;8.73;;;5.10;;
8540;SDS011;4308;51.294;6.590;2024-02-15T07:41:37;11.37;;;5.23;;
8540;SDS011;4308;51.294;6.590;2024-02-15T07:44:05;11.13;;;4.97;;
8540;SDS011;4308;51.294;6.590;2024-02-15T07:46:32;14.00;;;4.83;;
8540;SDS011;4308;51.294;6.590;2024-02-15T07:48:59;9.43;;;4.80;;
8540;SDS011;4308;51.294;6.590;2024-02-15T07:51:27;8.10;;;4.10;;
8540;SDS011;4308;51.294;6.590;2024-02-15T07:53:54;8.77;;;3.87;;
8540;SDS011;4308;51.294;6.590;2024-02-15T07:56:22;9.67;;;4.30;;
8540;SDS011;4308;51.294;6.590;2024-02-15T07:58:49;8.97;;;4.47;;
8540;SDS011;4308;51.294;6.590;2024-02-15T08:01:19;8.27;;;4.33;;
8540;SDS011;4308;51.294;6.590;2024-02-15T08:03:47;10.30;;;4.30;;
8540;SDS011;4308;51.294;6.590;2024-02-15T08:06:15;9.50;;;4.00;;
8540;SDS011;4308;51.294;6.590;2024-02-15T08:08:44;12.17;;;4.23;;
8540;SDS011;4308;51.294;6.590;2024-02-15T08:11:14;12.00;;;3.90;;
8540;SDS011;4308;51.294;6.590;2024-02-15T08:13:45;10.83;;;4.33;;
8540;SDS011;4308;51.294;6.590;2024-02-15T08:16:17;11.17;;;4.60;;
8540;SDS011;4308;51.294;6.590;2024-02-15T08:18:46;12.23;;;4.77;;
8540;SDS011;4308;51.294;6.590;2024-02-15T08:21:14;10.47;;;4.90;;
8540;SDS011;4308;51.294;6.590;2024-02-15T08:23:42;10.23;;;4.67;;
8540;SDS011;4308;51.294;6.590;2024-02-15T08:26:10;9.00;;;5.20;;
8540;SDS011;4308;51.294;6.590;2024-02-15T08:28:37;11.97;;;5.37;;
8540;SDS011;4308;51.294;6.590;2024-02-15T08:31:04;10.57;;;5.10;;
8540;SDS011;4308;51.294;6.590;2024-02-15T08:33:32;7.83;;;4.90;;
8540;SDS011;4308;51.294;6.590;2024-02-15T08:35:59;12.73;;;4.80;;
8540;SDS011;4308;51.294;6.590;2024-02-15T08:38:27;8.73;;;4.87;;
8540;SDS011;4308;51.294;6.590;2024-02-15T08:40:54;7.67;;;4.67;;
8540;SDS011;4308;51.294;6.590;2024-02-15T08:43:21;11.73;;;4.50;;
8540;SDS011;4308;51.294;6.590;2024-02-15T08:45:49;11.40;;;4.90;;
8540;SDS011;4308;51.294;6.590;2024-02-15T08:48:16;12.77;;;4.10;;
8540;SDS011;4308;51.294;6.590;2024-02-15T08:50:44;10.40;;;4.43;;
8540;SDS011;4308;51.294;6.590;2024-02-15T08:53:11;11.37;;;4.67;;
8540;SDS011;4308;51.294;6.590;2024-02-15T08:55:38;10.07;;;4.20;;
8540;SDS011;4308;51.294;6.590;2024-02-15T08:58:05;11.40;;;4.53;;
8540;SDS011;4308;51.294;6.590;2024-02-15T09:00:33;9.23;;;4.23;;
8540;SDS011;4308;51.294;6.590;2024-02-15T09:03:00;11.03;;;4.40;;
8540;SDS011;4308;51.294;6.590;2024-02-15T09:05:28;9.37;;;4.33;;
8540;SDS011;4308;51.294;6.590;2024-02-15T09:07:55;7.63;;;4.27;;
8540;SDS011;4308;51.294;6.590;2024-02-15T09:10:22;9.20;;;4.90;;
8540;SDS011;4308;51.294;6.590;2024-02-15T09:12:50;9.87;;;5.10;;
8540;SDS011;4308;51.294;6.590;2024-02-15T09:15:17;7.40;;;4.20;;
8540;SDS011;4308;51.294;6.590;2024-02-15T09:17:45;9.50;;;4.70;;
8540;SDS011;4308;51.294;6.590;2024-02-15T09:20:14;12.40;;;4.70;;
8540;SDS011;4308;51.294;6.590;2024-02-15T09:22:47;10.40;;;4.60;;
8540;SDS011;4308;51.294;6.590;2024-02-15T09:25:15;11.67;;;4.83;;
8540;SDS011;4308;51.294;6.590;2024-02-15T09:27:43;7.10;;;4.33;;
8540;SDS011;4308;51.294;6.590;2024-02-15T09:30:11;6.80;;;4.37;;
8540;SDS011;4308;51.294;6.590;2024-02-15T09:32:39;6.50;;;4.20;;
8540;SDS011;4308;51.294;6.590;2024-02-15T09:35:08;9.00;;;4.40;;
8540;SDS011;4308;51.294;6.590;2024-02-15T09:37:36;7.73;;;4.03;;
8540;SDS011;4308;51.294;6.590;2024-02-15T09:40:08;9.70;;;3.97;;
8540;SDS011;4308;51.294;6.590;2024-02-15T09:42:37;11.73;;;4.53;;
8540;SDS011;4308;51.294;6.590;2024-02-15T09:45:05;8.33;;;4.10;;
8540;SDS011;4308;51.294;6.590;2024-02-15T09:47:36;5.67;;;3.90;;
8540;SDS011;4308;51.294;6.590;2024-02-15T09:50:10;8.83;;;3.97;;
8540;SDS011;4308;51.294;6.590;2024-02-15T09:52:39;7.40;;;4.77;;
8540;SDS011;4308;51.294;6.590;2024-02-15T09:55:10;9.30;;;3.90;;
8540;SDS011;4308;51.294;6.590;2024-02-15T09:57:38;9.53;;;3.93;;
8540;SDS011;4308;51.294;6.590;2024-02-15T10:00:08;10.07;;;4.00;;
8540;SDS011;4308;51.294;6.590;2024-02-15T10:02:36;6.70;;;3.53;;
8540;SDS011;4308;51.294;6.590;2024-02-15T10:05:07;8.83;;;3.10;;
8540;SDS011;4308;51.294;6.590;2024-02-15T10:07:35;9.83;;;3.63;;
8540;SDS011;4308;51.294;6.590;2024-02-15T10:12:46;4.73;;;3.30;;
8540;SDS011;4308;51.294;6.590;2024-02-15T10:15:30;7.60;;;3.03;;
8540;SDS011;4308;51.294;6.590;2024-02-15T10:18:03;5.00;;;2.93;;
8540;SDS011;4308;51.294;6.590;2024-02-15T10:20:33;4.37;;;3.30;;
8540;SDS011;4308;51.294;6.590;2024-02-15T10:25:28;9.63;;;3.37;;
8540;SDS011;4308;51.294;6.590;2024-02-15T10:28:02;7.03;;;3.20;;
8540;SDS011;4308;51.294;6.590;2024-02-15T10:30:36;7.70;;;4.07;;
8540;SDS011;4308;51.294;6.590;2024-02-15T10:33:05;7.60;;;3.27;;
8540;SDS011;4308;51.294;6.590;2024-02-15T10:35:33;4.57;;;3.03;;
8540;SDS011;4308;51.294;6.590;2024-02-15T10:38:10;10.57;;;3.20;;
8540;SDS011;4308;51.294;6.590;2024-02-15T10:40:40;5.67;;;3.07;;
8540;SDS011;4308;51.294;6.590;2024-02-15T10:43:09;8.37;;;3.67;;
8540;SDS011;4308;51.294;6.590;2024-02-15T10:45:36;5.50;;;2.97;;
8540;SDS011;4308;51.294;6.590;2024-02-15T10:48:10;4.40;;;2.90;;
8540;SDS011;4308;51.294;6.590;2024-02-15T10:50:41;6.57;;;3.20;;
8540;SDS011;4308;51.294;6.590;2024-02-15T10:58:19;6.40;;;3.10;;
8540;SDS011;4308;51.294;6.590;2024-02-15T11:00:47;8.07;;;2.93;;
8540;SDS011;4308;51.294;6.590;2024-02-15T11:03:21;7.87;;;3.50;;
8540;SDS011;4308;51.294;6.590;2024-02-15T11:06:02;5.97;;;3.13;;
8540;SDS011;4308;51.294;6.590;2024-02-15T11:08:31;7.60;;;3.27;;
8540;SDS011;4308;51.294;6.590;2024-02-15T11:10:59;9.10;;;3.10;;
8540;SDS011;4308;51.294;6.590;2024-02-15T11:13:26;5.73;;;2.87;;
8540;SDS011;4308;51.294;6.590;2024-02-15T11:15:54;5.40;;;2.77;;
8540;SDS011;4308;51.294;6.590;2024-02-15T11:21:08;6.93;;;2.90;;
8540;SDS011;4308;51.294;6.590;2024-02-15T11:23:39;7.80;;;3.30;;
8540;SDS011;4308;51.294;6.590;2024-02-15T11:26:08;8.03;;;3.23;;
8540;SDS011;4308;51.294;6.590;2024-02-15T11:28:37;5.87;;;3.03;;
8540;SDS011;4308;51.294;6.590;2024-02-15T11:31:08;6.03;;;3.20;;
8540;SDS011;4308;51.294;6.590;2024-02-15T11:33:36;8.13;;;3.40;;
8540;SDS011;4308;51.294;6.590;2024-02-15T11:36:11;6.00;;;3.03;;
8540;SDS011;4308;51.294;6.590;2024-02-15T11:38:40;3.90;;;2.97;;
8540;SDS011;4308;51.294;6.590;2024-02-15T11:41:08;4.57;;;2.60;;
8540;SDS011;4308;51.294;6.590;2024-02-15T11:43:45;6.50;;;2.70;;
8540;SDS011;4308;51.294;6.590;2024-02-15T11:46:14;6.30;;;3.07;;
8540;SDS011;4308;51.294;6.590;2024-02-15T11:48:45;5.43;;;2.83;;
8540;SDS011;4308;51.294;6.590;2024-02-15T11:51:27;8.80;;;2.70;;
8540;SDS011;4308;51.294;6.590;2024-02-15T11:53:58;7.33;;;2.53;;
8540;SDS011;4308;51.294;6.590;2024-02-15T11:56:29;7.80;;;2.50;;
8540;SDS011;4308;51.294;6.590;2024-02-15T11:59:05;7.10;;;2.67;;
8540;SDS011;4308;51.294;6.590;2024-02-15T12:01:33;5.03;;;2.50;;
8540;SDS011;4308;51.294;6.590;2024-02-15T12:04:00;5.63;;;2.67;;
8540;SDS011;4308;51.294;6.590;2024-02-15T12:06:33;4.37;;;2.37;;
8540;SDS011;4308;51.294;6.590;2024-02-15T12:09:01;4.63;;;2.40;;
8540;SDS011;4308;51.294;6.590;2024-02-15T12:11:29;6.67;;;2.53;;
8540;SDS011;4308;51.294;6.590;2024-02-15T12:13:57;5.93;;;2.03;;
8540;SDS011;4308;51.294;6.590;2024-02-15T12:16:24;4.40;;;2.23;;
8540;SDS011;4308;51.294;6.590;2024-02-15T12:18:52;8.80;;;2.40;;
8540;SDS011;4308;51.294;6.590;2024-02-15T12:21:23;5.27;;;2.10;;
8540;SDS011;4308;51.294;6.590;2024-02-15T12:23:52;6.83;;;2.27;;
8540;SDS011;4308;51.294;6.590;2024-02-15T12:26:20;6.27;;;2.23;;
8540;SDS011;4308;51.294;6.590;2024-02-15T12:28:51;4.77;;;2.07;;
8540;SDS011;4308;51.294;6.590;2024-02-15T12:31:19;6.57;;;2.50;;
8540;SDS011;4308;51.294;6.590;2024-02-15T12:33:47;5.53;;;2.37;;
8540;SDS011;4308;51.294;6.590;2024-02-15T12:36:25;3.67;;;2.07;;
8540;SDS011;4308;51.294;6.590;2024-02-15T12:39:02;9.53;;;2.70;;
8540;SDS011;4308;51.294;6.590;2024-02-15T12:41:30;6.77;;;2.20;;
8540;SDS011;4308;51.294;6.590;2024-02-15T12:43:58;4.73;;;2.10;;
8540;SDS011;4308;51.294;6.590;2024-02-15T12:46:25;4.37;;;2.27;;
8540;SDS011;4308;51.294;6.590;2024-02-15T12:49:05;5.07;;;2.17;;
8540;SDS011;4308;51.294;6.590;2024-02-15T12:51:34;6.67;;;2.17;;
8540;SDS011;4308;51.294;6.590;2024-02-15T12:54:10;6.33;;;2.57;;
8540;SDS011;4308;51.294;6.590;2024-02-15T12:56:38;6.27;;;2.20;;
8540;SDS011;4308;51.294;6.590;2024-02-15T12:59:05;5.10;;;2.30;;
8540;SDS011;4308;51.294;6.590;2024-02-15T13:01:34;7.60;;;2.10;;
8540;SDS011;4308;51.294;6.590;2024-02-15T13:04:01;3.47;;;1.90;;
8540;SDS011;4308;51.294;6.590;2024-02-15T13:06:28;4.50;;;2.13;;
8540;SDS011;4308;51.294;6.590;2024-02-15T13:08:56;5.93;;;2.00;;
8540;SDS011;4308;51.294;6.590;2024-02-15T13:11:23;4.53;;;2.23;;
8540;SDS011;4308;51.294;6.590;2024-02-15T13:13:50;3.83;;;1.97;;
8540;SDS011;4308;51.294;6.590;2024-02-15T13:16:18;5.83;;;1.97;;
8540;SDS011;4308;51.294;6.590;2024-02-15T13:18:45;3.53;;;1.87;;
8540;SDS011;4308;51.294;6.590;2024-02-15T13:21:13;5.87;;;1.87;;
8540;SDS011;4308;51.294;6.590;2024-02-15T13:23:40;5.20;;;2.07;;
8540;SDS011;4308;51.294;6.590;2024-02-15T13:26:07;4.63;;;1.97;;
8540;SDS011;4308;51.294;6.590;2024-02-15T13:28:35;4.83;;;1.83;;
8540;SDS011;4308;51.294;6.590;2024-02-15T13:31:02;6.97;;;2.03;;
8540;SDS011;4308;51.294;6.590;2024-02-15T13:33:30;3.53;;;1.80;;
8540;SDS011;4308;51.294;6.590;2024-02-15T13:35:57;4.60;;;1.80;;
8540;SDS011;4308;51.294;6.590;2024-02-15T13:38:24;5.03;;;2.10;;
8540;SDS011;4308;51.294;6.590;2024-02-15T13:40:52;3.87;;;1.83;;
8540;SDS011;4308;51.294;6.590;2024-02-15T13:43:19;4.27;;;1.50;;
8540;SDS011;4308;51.294;6.590;2024-02-15T13:45:47;3.30;;;1.60;;
8540;SDS011;4308;51.294;6.590;2024-02-15T13:48:14;5.03;;;1.77;;
8540;SDS011;4308;51.294;6.590;2024-02-15T13:50:42;4.93;;;2.00;;
8540;SDS011;4308;51.294;6.590;2024-02-15T13:53:09;4.33;;;2.17;;
8540;SDS011;4308;51.294;6.590;2024-02-15T13:55:37;2.97;;;1.80;;
8540;SDS011;4308;51.294;6.590;2024-02-15T13:58:05;5.93;;;2.77;;
8540;SDS011;4308;51.294;6.590;2024-02-15T14:00:32;5.53;;;2.90;;
8540;SDS011;4308;51.294;6.590;2024-02-15T14:03:00;4.60;;;2.17;;
8540;SDS011;4308;51.294;6.590;2024-02-15T14:05:28;3.17;;;2.00;;
8540;SDS011;4308;51.294;6.590;2024-02-15T14:08:03;3.73;;;1.93;;
8540;SDS011;4308;51.294;6.590;2024-02-15T14:10:32;5.07;;;1.47;;
8540;SDS011;4308;51.294;6.590;2024-02-15T14:13:00;4.13;;;1.43;;
8540;SDS011;4308;51.294;6.590;2024-02-15T14:15:28;3.27;;;1.40;;
8540;SDS011;4308;51.294;6.590;2024-02-15T14:17:56;6.40;;;1.83;;
8540;SDS011;4308;51.294;6.590;2024-02-15T14:20:23;2.80;;;1.47;;
8540;SDS011;4308;51.294;6.590;2024-02-15T14:22:51;3.97;;;1.43;;
8540;SDS011;4308;51.294;6.590;2024-02-15T14:25:18;3.20;;;1.40;;
8540;SDS011;4308;51.294;6.590;2024-02-15T14:27:46;5.03;;;2.07;;
8540;SDS011;4308;51.294;6.590;2024-02-15T14:30:13;3.80;;;2.10;;
8540;SDS011;4308;51.294;6.590;2024-02-15T14:32:41;3.50;;;1.87;;
8540;SDS011;4308;51.294;6.590;2024-02-15T14:35:08;6.23;;;2.20;;
8540;SDS011;4308;51.294;6.590;2024-02-15T14:37:39;9.20;;;2.13;;
8540;SDS011;4308;51.294;6.590;2024-02-15T14:40:06;5.97;;;2.20;;
8540;SDS011;4308;51.294;6.590;2024-02-15T14:42:34;5.30;;;2.60;;
8540;SDS011;4308;51.294;6.590;2024-02-15T14:45:01;5.23;;;2.53;;
8540;SDS011;4308;51.294;6.590;2024-02-15T14:47:29;4.43;;;2.13;;
8540;SDS011;4308;51.294;6.590;2024-02-15T14:49:56;4.33;;;2.40;;
8540;SDS011;4308;51.294;6.590;2024-02-15T14:52:24;4.47;;;2.17;;
8540;SDS011;4308;51.294;6.590;2024-02-15T14:54:51;5.87;;;2.60;;
8540;SDS011;4308;51.294;6.590;2024-02-15T14:57:19;3.10;;;2.20;;
8540;SDS011;4308;51.294;6.590;2024-02-15T14:59:49;5.27;;;2.13;;
8540;SDS011;4308;51.294;6.590;2024-02-15T15:02:17;4.70;;;2.30;;
8540;SDS011;4308;51.294;6.590;2024-02-15T15:04:44;4.23;;;2.30;;
8540;SDS011;4308;51.294;6.590;2024-02-15T15:07:11;3.60;;;2.07;;
8540;SDS011;4308;51.294;6.590;2024-02-15T15:09:39;7.63;;;2.13;;
8540;SDS011;4308;51.294;6.590;2024-02-15T15:12:07;6.97;;;2.07;;
8540;SDS011;4308;51.294;6.590;2024-02-15T15:14:34;8.37;;;2.03;;
8540;SDS011;4308;51.294;6.590;2024-02-15T15:17:01;5.33;;;2.17;;
8540;SDS011;4308;51.294;6.590;2024-02-15T15:19:30;4.97;;;2.47;;
8540;SDS011;4308;51.294;6.590;2024-02-15T15:21:57;2.77;;;1.93;;
8540;SDS011;4308;51.294;6.590;2024-02-15T15:24:25;3.13;;;2.00;;
8540;SDS011;4308;51.294;6.590;2024-02-15T15:26:52;4.03;;;2.40;;
8540;SDS011;4308;51.294;6.590;2024-02-15T15:29:20;7.70;;;2.10;;
8540;SDS011;4308;51.294;6.590;2024-02-15T15:31:47;7.07;;;2.27;;